Time;durP1;ratioP1;P1;durP2;ratioP2;P2;SDS_P1;SDS_P2;PMS_P1;PMS_P2;Temp;Humidity;BMP_temperature;BMP_pressure;BME280_temperature;BME280_humidity;BME280_pressure;Samples;Min_cycle;Max_cycle;Signal;HPM_P1;HPM_P2
2023/02/21 02:15:04;;;;;;;0.10;0.10;;;;;;;;;;5043566;28;20248;-73
2023/02/21 02:17:36;;;;;;;0.10;0.10;;;;;;;;;;5049388;28;20240;-73
2023/02/21 02:20:21;;;;;;;0.10;0.10;;;;;;;;;;5047452;28;20272;-73
2023/02/21 02:23:06;;;;;;;0.10;0.10;;;;;;;;;;5047169;28;20189;-73
2023/02/21 02:25:42;;;;;;;0.10;0.10;;;;;;;;;;5040379;28;20243;-73
2023/02/21 02:28:23;;;;;;;0.10;0.10;;;;;;;;;;5058267;28;20314;-73
2023/02/21 02:31:04;;;;;;;0.10;0.10;;;;;;;;;;5042189;28;20462;-73
2023/02/21 02:33:55;;;;;;;0.10;0.10;;;;;;;;;;5055189;28;20219;-73
2023/02/21 02:36:25;;;;;;;0.10;0.10;;;;;;;;;;5046337;28;20266;-73
2023/02/21 02:38:57;;;;;;;0.10;0.10;;;;;;;;;;5052472;28;20530;-73
2023/02/21 02:41:27;;;;;;;0.10;0.10;;;;;;;;;;5046589;28;20488;-73
2023/02/21 02:43:55;;;;;;;0.10;0.10;;;;;;;;;;5051953;28;20224;-73
2023/02/21 02:46:24;;;;;;;0.10;0.10;;;;;;;;;;5046325;28;20311;-74
2023/02/21 02:48:53;;;;;;;1.60;0.63;;;;;;;;;;5052342;28;20212;-73
2023/02/21 02:51:20;;;;;;;0.10;0.10;;;;;;;;;;5045793;28;20255;-74
2023/02/21 02:53:48;;;;;;;0.20;0.20;;;;;;;;;;5052676;28;20303;-73
2023/02/21 02:56:15;;;;;;;0.10;0.10;;;;;;;;;;5045029;28;20307;-73
2023/02/21 02:58:44;;;;;;;0.10;0.10;;;;;;;;;;5053029;28;20207;-71
2023/02/21 03:01:25;;;;;;;0.10;0.10;;;;;;;;;;5044571;28;20247;-73
2023/02/21 03:03:58;;;;;;;0.10;0.10;;;;;;;;;;5048543;28;20201;-73
2023/02/21 03:06:27;;;;;;;0.10;0.10;;;;;;;;;;5046218;28;20255;-73
2023/02/21 03:08:59;;;;;;;0.10;0.10;;;;;;;;;;5051168;28;20207;-73
2023/02/21 03:11:26;;;;;;;0.10;0.10;;;;;;;;;;5046093;28;20262;-73
2023/02/21 03:13:55;;;;;;;0.10;0.10;;;;;;;;;;5051399;28;20274;-73
2023/02/21 03:16:24;;;;;;;0.10;0.10;;;;;;;;;;5045597;28;20244;-73
2023/02/21 03:18:52;;;;;;;0.10;0.10;;;;;;;;;;5051735;28;20214;-73
2023/02/21 03:21:21;;;;;;;0.10;0.10;;;;;;;;;;5045089;28;20263;-73
2023/02/21 03:23:50;;;;;;;0.10;0.10;;;;;;;;;;5051697;28;20271;-73
2023/02/21 03:26:17;;;;;;;0.10;0.10;;;;;;;;;;5044661;28;20243;-73
2023/02/21 03:28:44;;;;;;;0.20;0.20;;;;;;;;;;5052038;28;20501;-73
2023/02/21 03:31:12;;;;;;;0.10;0.10;;;;;;;;;;5043243;28;20259;-72
2023/02/21 03:33:40;;;;;;;0.20;0.20;;;;;;;;;;5052658;28;20205;-73
2023/02/21 03:36:08;;;;;;;0.10;0.10;;;;;;;;;;5043298;28;20246;-73
2023/02/21 03:38:34;;;;;;;0.97;0.97;;;;;;;;;;5053482;28;20437;-73
2023/02/21 03:41:01;;;;;;;0.10;0.10;;;;;;;;;;5042544;28;20240;-73
2023/02/21 03:43:28;;;;;;;0.10;0.10;;;;;;;;;;5054058;28;20236;-73
2023/02/21 03:45:55;;;;;;;0.10;0.10;;;;;;;;;;5041348;28;20557;-73
2023/02/21 03:48:21;;;;;;;0.10;0.10;;;;;;;;;;5055037;28;20532;-73
2023/02/21 03:50:47;;;;;;;0.10;0.10;;;;;;;;;;5040580;28;20499;-73
2023/02/21 03:53:14;;;;;;;0.20;0.20;;;;;;;;;;5055856;28;20218;-72
2023/02/21 03:55:40;;;;;;;0.70;0.70;;;;;;;;;;5039523;28;20319;-72
2023/02/21 03:58:06;;;;;;;0.17;0.17;;;;;;;;;;5056813;28;20263;-72
2023/02/21 04:00:34;;;;;;;0.20;0.20;;;;;;;;;;5038258;28;20244;-73
2023/02/21 04:03:00;;;;;;;0.10;0.10;;;;;;;;;;5057191;28;20224;-72
2023/02/21 04:05:27;;;;;;;0.10;0.10;;;;;;;;;;5037852;28;20288;-72
2023/02/21 04:07:53;;;;;;;0.10;0.10;;;;;;;;;;5058301;28;20264;-73
2023/02/21 04:10:19;;;;;;;0.10;0.10;;;;;;;;;;5036572;28;20284;-72
2023/02/21 04:12:46;;;;;;;0.10;0.10;;;;;;;;;;5059174;28;20439;-72
2023/02/21 04:15:12;;;;;;;0.10;0.10;;;;;;;;;;5035604;28;20469;-71
2023/02/21 04:17:40;;;;;;;0.10;0.10;;;;;;;;;;5059670;28;20193;-73
2023/02/21 04:20:07;;;;;;;0.10;0.10;;;;;;;;;;5045181;28;20563;-73
2023/02/21 04:22:33;;;;;;;0.10;0.10;;;;;;;;;;5033519;28;20212;-73
2023/02/21 04:24:59;;;;;;;0.10;0.10;;;;;;;;;;5044797;28;20243;-73
2023/02/21 04:27:26;;;;;;;0.10;0.10;;;;;;;;;;5050141;28;20240;-73
2023/02/21 04:29:52;;;;;;;0.20;0.20;;;;;;;;;;5044591;28;20217;-72
2023/02/21 04:32:19;;;;;;;0.50;0.50;;;;;;;;;;5049861;28;20240;-73
2023/02/21 04:34:46;;;;;;;0.10;0.10;;;;;;;;;;5044580;28;20298;-72
2023/02/21 04:37:14;;;;;;;0.40;0.40;;;;;;;;;;5049878;28;20263;-73
2023/02/21 04:39:40;;;;;;;0.10;0.10;;;;;;;;;;5044780;28;20246;-71
2023/02/21 04:42:08;;;;;;;0.10;0.10;;;;;;;;;;5049551;28;20240;-72
2023/02/21 04:44:34;;;;;;;0.10;0.10;;;;;;;;;;5044404;28;20200;-73
2023/02/21 04:47:01;;;;;;;0.10;0.10;;;;;;;;;;5048819;28;20248;-72
2023/02/21 04:49:27;;;;;;;0.20;0.20;;;;;;;;;;5045265;28;20272;-73
2023/02/21 04:51:55;;;;;;;0.20;0.20;;;;;;;;;;5047717;28;20246;-73
2023/02/21 04:54:21;;;;;;;0.10;0.10;;;;;;;;;;5045776;28;20244;-72
2023/02/21 04:56:48;;;;;;;0.10;0.10;;;;;;;;;;5046564;28;20517;-73
2023/02/21 04:59:14;;;;;;;0.10;0.10;;;;;;;;;;5047017;28;20212;-75
2023/02/21 05:01:40;;;;;;;0.10;0.10;;;;;;;;;;5044273;28;20299;-73
2023/02/21 05:04:07;;;;;;;0.10;0.10;;;;;;;;;;5048807;28;20208;-73
2023/02/21 05:06:33;;;;;;;0.10;0.10;;;;;;;;;;5044943;28;20244;-73
2023/02/21 05:09:01;;;;;;;0.10;0.10;;;;;;;;;;5048586;28;20271;-73
2023/02/21 05:11:28;;;;;;;0.10;0.10;;;;;;;;;;5044196;28;20302;-72
2023/02/21 05:13:54;;;;;;;0.10;0.10;;;;;;;;;;5049245;28;20465;-72
2023/02/21 05:16:21;;;;;;;0.10;0.10;;;;;;;;;;5043148;28;20248;-73
2023/02/21 05:18:48;;;;;;;0.10;0.10;;;;;;;;;;5049765;28;20275;-73
2023/02/21 05:21:14;;;;;;;0.17;0.17;;;;;;;;;;5042309;28;20318;-72
2023/02/21 05:23:41;;;;;;;0.10;0.10;;;;;;;;;;5050739;28;20211;-73
2023/02/21 05:26:10;;;;;;;0.10;0.10;;;;;;;;;;5044197;28;20275;-74
2023/02/21 05:28:37;;;;;;;0.10;0.10;;;;;;;;;;5043963;28;20205;-73
2023/02/21 05:31:03;;;;;;;0.60;0.60;;;;;;;;;;5040427;28;20240;-73
2023/02/21 05:33:30;;;;;;;1.30;1.07;;;;;;;;;;5051681;28;20206;-74
2023/02/21 05:35:56;;;;;;;0.10;0.10;;;;;;;;;;5039952;28;20302;-73
2023/02/21 05:38:23;;;;;;;0.10;0.10;;;;;;;;;;5052814;28;20452;-74
2023/02/21 05:40:50;;;;;;;0.10;0.10;;;;;;;;;;5038767;28;20299;-74
2023/02/21 05:43:18;;;;;;;0.10;0.10;;;;;;;;;;5053596;28;20449;-73
2023/02/21 05:45:44;;;;;;;0.20;0.20;;;;;;;;;;5038318;28;20255;-74
2023/02/21 05:48:11;;;;;;;0.10;0.10;;;;;;;;;;5054270;28;20393;-73
2023/02/21 05:50:38;;;;;;;0.10;0.10;;;;;;;;;;5037541;28;20310;-73
2023/02/21 05:53:05;;;;;;;0.10;0.10;;;;;;;;;;5058379;28;20219;-74
2023/02/21 05:55:31;;;;;;;0.10;0.10;;;;;;;;;;5042941;28;20288;-73
2023/02/21 05:57:57;;;;;;;0.10;0.10;;;;;;;;;;5062571;28;20264;-73
2023/02/21 06:00:26;;;;;;;0.10;0.10;;;;;;;;;;5042064;28;20205;-73
2023/02/21 06:02:53;;;;;;;0.10;0.10;;;;;;;;;;5063248;28;20202;-73
2023/02/21 06:05:20;;;;;;;0.10;0.10;;;;;;;;;;5041171;28;20228;-73
2023/02/21 06:07:46;;;;;;;0.10;0.10;;;;;;;;;;5063910;28;20296;-73
2023/02/21 06:10:13;;;;;;;1.80;0.50;;;;;;;;;;5040461;28;20243;-75
2023/02/21 06:12:39;;;;;;;0.70;0.70;;;;;;;;;;5064551;28;20252;-74
2023/02/21 06:15:06;;;;;;;0.10;0.10;;;;;;;;;;5050006;28;20252;-73
2023/02/21 06:17:34;;;;;;;0.63;0.63;;;;;;;;;;5038428;28;20275;-73
2023/02/21 06:20:00;;;;;;;0.30;0.30;;;;;;;;;;5049796;28;20226;-73
2023/02/21 06:22:26;;;;;;;0.10;0.10;;;;;;;;;;5055126;28;20306;-73
2023/02/21 06:24:53;;;;;;;0.97;0.80;;;;;;;;;;5049760;28;20200;-72
2023/02/21 06:27:19;;;;;;;0.30;0.30;;;;;;;;;;5055016;28;20303;-72
2023/02/21 06:29:46;;;;;;;0.10;0.10;;;;;;;;;;5049713;28;20487;-73
2023/02/21 06:32:12;;;;;;;0.10;0.10;;;;;;;;;;5055104;28;20240;-73
2023/02/21 06:34:40;;;;;;;0.10;0.10;;;;;;;;;;5049819;28;20211;-72
2023/02/21 06:37:06;;;;;;;0.10;0.10;;;;;;;;;;5054849;28;20310;-72
2023/02/21 06:39:34;;;;;;;0.10;0.10;;;;;;;;;;5049774;28;20208;-72
2023/02/21 06:42:00;;;;;;;0.10;0.10;;;;;;;;;;5053751;28;20314;-72
2023/02/21 06:44:27;;;;;;;0.10;0.10;;;;;;;;;;5050393;28;20276;-72
2023/02/21 06:46:54;;;;;;;0.10;0.10;;;;;;;;;;5053120;28;20247;-73
2023/02/21 06:49:21;;;;;;;0.10;0.10;;;;;;;;;;5051227;28;20259;-73
2023/02/21 06:51:48;;;;;;;0.10;0.10;;;;;;;;;;5052100;28;20299;-73
2023/02/21 06:54:15;;;;;;;0.10;0.10;;;;;;;;;;5051791;28;20275;-73
2023/02/21 06:56:43;;;;;;;0.10;0.10;;;;;;;;;;5051432;28;20481;-73
2023/02/21 06:59:09;;;;;;;0.10;0.10;;;;;;;;;;5052730;28;20207;-73
2023/02/21 07:01:36;;;;;;;0.10;0.10;;;;;;;;;;5050616;28;20247;-72
2023/02/21 07:04:02;;;;;;;0.10;0.10;;;;;;;;;;5050758;28;20251;-72
2023/02/21 07:06:30;;;;;;;0.10;0.10;;;;;;;;;;5046711;28;20509;-73
2023/02/21 07:08:58;;;;;;;0.17;0.17;;;;;;;;;;5050910;28;20197;-73
2023/02/21 07:11:24;;;;;;;0.10;0.10;;;;;;;;;;5046169;28;20255;-73
2023/02/21 07:13:51;;;;;;;0.10;0.10;;;;;;;;;;5051762;28;20220;-73
2023/02/21 07:16:18;;;;;;;0.10;0.10;;;;;;;;;;5048230;28;20319;-72
2023/02/21 07:18:44;;;;;;;0.10;0.10;;;;;;;;;;5052494;28;20259;-73
2023/02/21 07:21:11;;;;;;;0.10;0.10;;;;;;;;;;5044129;28;20256;-73
2023/02/21 07:23:37;;;;;;;0.20;0.20;;;;;;;;;;5053527;28;20276;-73
2023/02/21 07:26:05;;;;;;;0.10;0.10;;;;;;;;;;5043130;28;20307;-73
2023/02/21 07:28:31;;;;;;;0.10;0.10;;;;;;;;;;5054162;28;20403;-73
2023/02/21 07:30:58;;;;;;;0.10;0.10;;;;;;;;;;5042026;28;20594;-73
2023/02/21 07:33:24;;;;;;;1.93;1.90;;;;;;;;;;5054890;28;20419;-72
2023/02/21 07:35:50;;;;;;;0.20;0.20;;;;;;;;;;5041185;28;20445;-72
2023/02/21 07:38:20;;;;;;;0.10;0.10;;;;;;;;;;5055573;28;20208;-72
2023/02/21 07:40:47;;;;;;;0.10;0.10;;;;;;;;;;5040778;28;20455;-72
2023/02/21 07:43:15;;;;;;;0.10;0.10;;;;;;;;;;5056074;28;20232;-71
2023/02/21 07:45:41;;;;;;;0.10;0.10;;;;;;;;;;5039787;28;20515;-70
2023/02/21 07:48:07;;;;;;;0.10;0.10;;;;;;;;;;5056771;28;20264;-72
2023/02/21 07:50:34;;;;;;;0.13;0.13;;;;;;;;;;5038941;28;20241;-72
2023/02/21 07:53:00;;;;;;;0.10;0.10;;;;;;;;;;5057454;28;20226;-72
2023/02/21 07:55:26;;;;;;;0.10;0.10;;;;;;;;;;5037778;28;20292;-72
2023/02/21 07:57:53;;;;;;;0.10;0.10;;;;;;;;;;5058294;28;20264;-71
2023/02/21 08:00:24;;;;;;;0.20;0.20;;;;;;;;;;5036687;28;20205;-71
2023/02/21 08:02:50;;;;;;;0.10;0.10;;;;;;;;;;5058557;28;20199;-73
2023/02/21 08:05:17;;;;;;;0.10;0.10;;;;;;;;;;5036512;28;20202;-72
2023/02/21 08:07:43;;;;;;;0.10;0.10;;;;;;;;;;5059575;28;20444;-72
2023/02/21 08:10:10;;;;;;;0.10;0.10;;;;;;;;;;5035309;28;20241;-71
2023/02/21 08:12:36;;;;;;;0.10;0.10;;;;;;;;;;5060057;28;20275;-72
2023/02/21 08:15:03;;;;;;;0.10;0.10;;;;;;;;;;5044782;28;20211;-72
2023/02/21 08:17:31;;;;;;;0.10;0.10;;;;;;;;;;5050346;28;20260;-71
2023/02/21 08:19:57;;;;;;;0.10;0.10;;;;;;;;;;5045077;28;20279;-72
2023/02/21 08:22:24;;;;;;;0.10;0.10;;;;;;;;;;5050149;28;20242;-72
2023/02/21 08:24:50;;;;;;;0.10;0.10;;;;;;;;;;5044846;28;20232;-72
2023/02/21 08:48:03;;;;;;;0.10;0.10;;;;;;;;;;5101330;27;20555;-68
2023/02/21 08:50:30;;;;;;;0.10;0.10;;;;;;;;;;5087357;28;20240;-69
2023/02/21 08:52:56;;;;;;;0.10;0.10;;;;;;;;;;5073313;28;20200;-69
2023/02/21 08:55:23;;;;;;;0.10;0.10;;;;;;;;;;5052378;28;20501;-69
2023/02/21 08:57:51;;;;;;;0.10;0.10;;;;;;;;;;5074221;28;20431;-69
2023/02/21 09:00:23;;;;;;;0.10;0.10;;;;;;;;;;5051476;28;20237;-70
2023/02/21 09:02:49;;;;;;;0.10;0.10;;;;;;;;;;5074167;28;20214;-69
2023/02/21 09:05:18;;;;;;;0.17;0.17;;;;;;;;;;5051079;28;20247;-68
2023/02/21 09:07:47;;;;;;;0.97;0.97;;;;;;;;;;5074686;28;20231;-68
2023/02/21 09:10:14;;;;;;;0.10;0.10;;;;;;;;;;5050775;28;20278;-68
2023/02/21 09:12:40;;;;;;;0.10;0.10;;;;;;;;;;5075201;28;20206;-67
2023/02/21 09:15:07;;;;;;;0.30;0.30;;;;;;;;;;5060283;28;20275;-68
2023/02/21 09:17:34;;;;;;;4.10;2.20;;;;;;;;;;5029562;28;20284;-68
2023/02/21 09:20:01;;;;;;;0.20;0.20;;;;;;;;;;5040626;28;20249;-68
2023/02/21 09:22:30;;;;;;;0.10;0.10;;;;;;;;;;5046137;28;20299;-68
2023/02/21 09:24:56;;;;;;;0.10;0.10;;;;;;;;;;5040505;28;20245;-68
2023/02/21 09:27:35;;;;;;;0.10;0.10;;;;;;;;;;5045797;28;20239;-68
2023/02/21 09:30:02;;;;;;;0.10;0.10;;;;;;;;;;5040147;28;20200;-70
2023/02/21 09:32:28;;;;;;;0.10;0.10;;;;;;;;;;5045792;28;20244;-69
2023/02/21 09:34:55;;;;;;;0.10;0.10;;;;;;;;;;5039959;28;20279;-69
2023/02/21 09:37:21;;;;;;;0.10;0.10;;;;;;;;;;5082509;28;20309;-68
2023/02/21 09:39:49;;;;;;;0.30;0.30;;;;;;;;;;5079869;28;20230;-69
2023/02/21 09:42:16;;;;;;;0.13;0.13;;;;;;;;;;5085475;28;20313;-69
2023/02/21 09:44:44;;;;;;;0.10;0.10;;;;;;;;;;5079630;28;20234;-68
2023/02/21 09:47:13;;;;;;;0.10;0.10;;;;;;;;;;5084885;28;20303;-69
2023/02/21 09:49:41;;;;;;;0.10;0.10;;;;;;;;;;5079580;28;20205;-67
2023/02/21 09:52:13;;;;;;;0.10;0.10;;;;;;;;;;5085248;28;20242;-70
2023/02/21 09:54:40;;;;;;;0.10;0.10;;;;;;;;;;5079997;28;20275;-72
2023/02/21 09:57:12;;;;;;;0.10;0.10;;;;;;;;;;5084846;28;20309;-71
2023/02/21 09:59:38;;;;;;;0.10;0.10;;;;;;;;;;5065684;28;20231;-71
2023/02/21 10:02:14;;;;;;;0.10;0.10;;;;;;;;;;5071284;28;20344;-72
2023/02/21 10:04:53;;;;;;;0.10;0.10;;;;;;;;;;5066334;28;20197;-70
2023/02/21 10:07:22;;;;;;;0.10;0.10;;;;;;;;;;5071513;28;20272;-70
2023/02/21 10:09:52;;;;;;;0.10;0.10;;;;;;;;;;5066264;28;20453;-69
2023/02/21 10:12:25;;;;;;;0.30;0.30;;;;;;;;;;5071406;28;20569;-70
2023/02/21 10:15:00;;;;;;;2.93;2.73;;;;;;;;;;5066264;28;20382;-70
2023/02/21 10:17:29;;;;;;;0.10;0.10;;;;;;;;;;5071385;28;20298;-71
2023/02/21 10:20:00;;;;;;;0.10;0.10;;;;;;;;;;5065865;28;20238;-70
2023/02/21 10:22:28;;;;;;;0.10;0.10;;;;;;;;;;5071057;28;20240;-70
2023/02/21 10:24:54;;;;;;;0.10;0.10;;;;;;;;;;5066024;28;20486;-68
2023/02/21 10:27:24;;;;;;;0.10;0.10;;;;;;;;;;5071092;28;20260;-70
2023/02/21 10:29:54;;;;;;;0.10;0.10;;;;;;;;;;5065959;28;20274;-69
2023/02/21 10:32:21;;;;;;;0.10;0.10;;;;;;;;;;5071182;28;20287;-70
2023/02/21 10:34:47;;;;;;;0.10;0.10;;;;;;;;;;5065942;28;20214;-69
2023/02/21 10:37:23;;;;;;;0.10;0.10;;;;;;;;;;5071033;28;20242;-71
2023/02/21 10:39:51;;;;;;;0.10;0.10;;;;;;;;;;5065473;28;20231;-69
2023/02/21 10:42:21;;;;;;;0.10;0.10;;;;;;;;;;5070859;28;20245;-69
2023/02/21 10:44:49;;;;;;;0.10;0.10;;;;;;;;;;5065588;28;20343;-69
2023/02/21 10:47:18;;;;;;;0.10;0.10;;;;;;;;;;5070316;28;20506;-69
2023/02/21 10:49:48;;;;;;;0.10;0.10;;;;;;;;;;5065238;28;20193;-68
2023/02/21 10:52:16;;;;;;;0.10;0.10;;;;;;;;;;5070694;28;20481;-68
2023/02/21 10:54:59;;;;;;;0.20;0.20;;;;;;;;;;5065443;28;20398;-69
2023/02/21 10:57:25;;;;;;;0.10;0.10;;;;;;;;;;5070675;28;20526;-69
2023/02/21 10:59:53;;;;;;;0.10;0.10;;;;;;;;;;5064878;28;20523;-70
2023/02/21 11:02:26;;;;;;;0.10;0.10;;;;;;;;;;5070391;28;20466;-70
2023/02/21 11:04:54;;;;;;;0.10;0.10;;;;;;;;;;5065263;28;20206;-70
2023/02/21 11:07:22;;;;;;;0.10;0.10;;;;;;;;;;5070345;28;20255;-70
2023/02/21 11:09:49;;;;;;;0.10;0.10;;;;;;;;;;5064136;28;20274;-71
2023/02/21 11:12:21;;;;;;;0.10;0.10;;;;;;;;;;5070196;28;20249;-69
2023/02/21 11:17:42;;;;;;;0.10;0.10;;;;;;;;;;5101322;27;20846;-69
2023/02/21 11:20:16;;;;;;;0.10;0.10;;;;;;;;;;5090362;28;20229;-68
2023/02/21 11:22:43;;;;;;;0.10;0.10;;;;;;;;;;5074987;28;20554;-69
2023/02/21 11:25:18;;;;;;;0.10;0.10;;;;;;;;;;5050489;28;20233;-69
2023/02/21 11:27:44;;;;;;;0.10;0.10;;;;;;;;;;5074968;28;20420;-70
2023/02/21 11:30:13;;;;;;;0.10;0.10;;;;;;;;;;5050672;28;20277;-69
2023/02/21 11:32:44;;;;;;;0.10;0.10;;;;;;;;;;5075374;28;20234;-69
2023/02/21 11:35:21;;;;;;;0.20;0.20;;;;;;;;;;5050701;28;20195;-69
2023/02/21 11:37:50;;;;;;;0.10;0.10;;;;;;;;;;5074272;28;20192;-69
2023/02/21 11:40:27;;;;;;;0.10;0.10;;;;;;;;;;5051349;28;20230;-70
2023/02/21 11:43:08;;;;;;;0.10;0.10;;;;;;;;;;5073187;28;20313;-70
2023/02/21 11:45:36;;;;;;;0.10;0.10;;;;;;;;;;5053687;28;20258;-71
2023/02/21 11:48:05;;;;;;;0.10;0.10;;;;;;;;;;5071844;28;20272;-70
2023/02/21 11:50:34;;;;;;;0.10;0.10;;;;;;;;;;5053409;28;20237;-71
2023/02/21 11:53:03;;;;;;;0.10;0.10;;;;;;;;;;5072057;28;20229;-69
2023/02/21 11:55:30;;;;;;;0.10;0.10;;;;;;;;;;5052858;28;20304;-69
2023/02/21 11:58:02;;;;;;;0.10;0.10;;;;;;;;;;5072778;28;20534;-69
2023/02/21 12:00:32;;;;;;;0.10;0.10;;;;;;;;;;5052076;28;20262;-70
2023/02/21 12:03:10;;;;;;;0.10;0.10;;;;;;;;;;5072927;28;20483;-69
2023/02/21 12:05:45;;;;;;;0.10;0.10;;;;;;;;;;5053473;28;20249;-69
2023/02/21 12:08:34;;;;;;;0.10;0.10;;;;;;;;;;5070593;28;20279;-70
2023/02/21 12:11:04;;;;;;;0.10;0.10;;;;;;;;;;5054644;28;20496;-69
2023/02/21 12:13:36;;;;;;;0.10;0.10;;;;;;;;;;5068125;28;20449;-70
2023/02/21 12:16:10;;;;;;;0.10;0.10;;;;;;;;;;5056638;28;20305;-68
2023/02/21 12:18:48;;;;;;;0.10;0.10;;;;;;;;;;5066949;28;20215;-69
2023/02/21 12:21:33;;;;;;;0.10;0.10;;;;;;;;;;5058053;28;20249;-70
2023/02/21 12:24:03;;;;;;;0.10;0.10;;;;;;;;;;5063664;28;20229;-69
2023/02/21 12:26:35;;;;;;;0.00;0.00;;;;;;;;;;5059893;28;20301;-76
2023/02/21 12:29:20;;;;;;;0.10;0.10;;;;;;;;;;5050562;28;20434;-70
2023/02/21 12:31:51;;;;;;;0.10;0.10;;;;;;;;;;5048732;28;20247;-69
2023/02/21 12:34:26;;;;;;;0.00;0.00;;;;;;;;;;5048205;28;20267;-69
2023/02/21 12:37:05;;;;;;;0.00;0.00;;;;;;;;;;5049419;28;20254;-69
2023/02/21 12:39:42;;;;;;;0.53;0.53;;;;;;;;;;5046611;28;20246;-71
2023/02/21 12:42:22;;;;;;;0.10;0.10;;;;;;;;;;5051347;28;20305;-71
2023/02/21 12:44:53;;;;;;;0.10;0.10;;;;;;;;;;5046320;28;20262;-69
2023/02/21 12:47:20;;;;;;;0.10;0.10;;;;;;;;;;5051421;28;20303;-67
2023/02/21 12:49:51;;;;;;;0.10;0.10;;;;;;;;;;5045853;28;20455;-69
2023/02/21 12:52:20;;;;;;;0.10;0.10;;;;;;;;;;5051039;28;20245;-70
2023/02/21 12:54:48;;;;;;;0.10;0.10;;;;;;;;;;5045753;28;20270;-71
2023/02/21 12:57:17;;;;;;;0.00;0.00;;;;;;;;;;5050955;28;20259;-71
2023/02/21 12:59:53;;;;;;;0.20;0.20;;;;;;;;;;5045971;28;20322;-70
2023/02/21 13:02:23;;;;;;;0.10;0.10;;;;;;;;;;5050892;28;20241;-70
2023/02/21 13:04:52;;;;;;;0.67;0.63;;;;;;;;;;5045903;28;20278;-70
2023/02/21 13:07:25;;;;;;;0.10;0.10;;;;;;;;;;5050542;28;20304;-71
2023/02/21 13:09:54;;;;;;;0.10;0.10;;;;;;;;;;5045402;28;20208;-71
2023/02/21 13:12:23;;;;;;;0.10;0.10;;;;;;;;;;5050718;28;20242;-70
2023/02/21 13:14:52;;;;;;;0.10;0.10;;;;;;;;;;5045449;28;20235;-70
2023/02/21 13:17:19;;;;;;;0.10;0.10;;;;;;;;;;5050457;28;20254;-68
2023/02/21 13:19:47;;;;;;;1.03;1.03;;;;;;;;;;5045283;28;20212;-68
2023/02/21 13:25:21;;;;;;;0.10;0.10;;;;;;;;;;5036046;28;20219;-68
2023/02/21 13:27:53;;;;;;;0.10;0.10;;;;;;;;;;5058782;28;20220;-68
2023/02/21 13:30:22;;;;;;;0.10;0.10;;;;;;;;;;5036349;28;20197;-69
2023/02/21 13:32:53;;;;;;;0.10;0.10;;;;;;;;;;5058796;28;20225;-68
2023/02/21 13:35:22;;;;;;;0.10;0.10;;;;;;;;;;5036483;28;20208;-68
2023/02/21 13:37:50;;;;;;;0.10;0.10;;;;;;;;;;5058485;28;20236;-68
2023/02/21 13:40:21;;;;;;;0.10;0.10;;;;;;;;;;5035105;28;20205;-69
2023/02/21 13:42:58;;;;;;;0.10;0.10;;;;;;;;;;5058385;28;20218;-68
2023/02/21 13:45:26;;;;;;;0.37;0.37;;;;;;;;;;5036910;28;20193;-69
2023/02/21 13:48:18;;;;;;;0.20;0.20;;;;;;;;;;5057883;28;20285;-69
2023/02/21 13:50:46;;;;;;;0.10;0.10;;;;;;;;;;5039542;28;20304;-68
2023/02/21 13:53:15;;;;;;;0.10;0.10;;;;;;;;;;5055083;28;20535;-68
2023/02/21 13:56:01;;;;;;;0.10;0.10;;;;;;;;;;5038615;28;20320;-69
2023/02/21 13:58:34;;;;;;;0.97;0.97;;;;;;;;;;5052802;28;20462;-71
2023/02/21 14:01:13;;;;;;;0.10;0.10;;;;;;;;;;5041485;28;20313;-69
2023/02/21 14:03:40;;;;;;;0.10;0.10;;;;;;;;;;5051584;28;20224;-69
2023/02/21 14:06:30;;;;;;;0.10;0.10;;;;;;;;;;5041803;28;20441;-68
2023/02/21 14:09:00;;;;;;;0.10;0.10;;;;;;;;;;5029473;28;20207;-68
2023/02/21 14:11:28;;;;;;;0.10;0.10;;;;;;;;;;5044356;28;20377;-69
2023/02/21 14:13:57;;;;;;;0.10;0.10;;;;;;;;;;5049051;28;20243;-69
2023/02/21 14:16:30;;;;;;;0.10;0.10;;;;;;;;;;5043983;28;20250;-69
2023/02/21 14:18:57;;;;;;;0.10;0.10;;;;;;;;;;5048985;28;20201;-68
2023/02/21 14:21:26;;;;;;;0.10;0.10;;;;;;;;;;5043862;28;20441;-69
2023/02/21 14:23:56;;;;;;;0.10;0.10;;;;;;;;;;5049577;28;20481;-69
2023/02/21 14:26:36;;;;;;;0.10;0.10;;;;;;;;;;5043350;28;20299;-69
2023/02/21 14:29:12;;;;;;;0.10;0.10;;;;;;;;;;5048250;28;20275;-69
2023/02/21 14:31:57;;;;;;;0.10;0.10;;;;;;;;;;5045712;28;20252;-68
2023/02/21 14:34:26;;;;;;;0.10;0.10;;;;;;;;;;5045525;28;20482;-69
2023/02/21 14:36:54;;;;;;;0.10;0.10;;;;;;;;;;5047512;28;20295;-69
2023/02/21 14:39:21;;;;;;;0.10;0.10;;;;;;;;;;5045641;28;20273;-69
2023/02/21 14:42:01;;;;;;;0.10;0.10;;;;;;;;;;5046377;28;20257;-69
2023/02/21 14:44:35;;;;;;;0.10;0.10;;;;;;;;;;5044697;28;20474;-68
2023/02/21 14:47:13;;;;;;;0.10;0.10;;;;;;;;;;5048305;28;20290;-68
2023/02/21 14:49:47;;;;;;;0.00;0.00;;;;;;;;;;5044112;28;20265;-68
2023/02/21 14:52:23;;;;;;;0.10;0.10;;;;;;;;;;5048737;28;20291;-68
2023/02/21 14:55:07;;;;;;;0.10;0.10;;;;;;;;;;5044024;28;20481;-68
2023/02/21 14:57:48;;;;;;;0.10;0.10;;;;;;;;;;5048860;28;20244;-68
2023/02/21 15:00:19;;;;;;;0.10;0.10;;;;;;;;;;5043776;28;20221;-68
2023/02/21 15:02:50;;;;;;;0.10;0.10;;;;;;;;;;5032136;28;20222;-69
2023/02/21 15:05:20;;;;;;;0.10;0.10;;;;;;;;;;5034214;28;20458;-68
2023/02/21 15:07:52;;;;;;;0.10;0.10;;;;;;;;;;5057743;28;20246;-69
2023/02/21 15:10:21;;;;;;;0.10;0.10;;;;;;;;;;5033703;28;20193;-68
2023/02/21 15:12:49;;;;;;;0.00;0.00;;;;;;;;;;5058098;28;20386;-68
2023/02/21 15:15:17;;;;;;;0.10;0.10;;;;;;;;;;5033397;28;20274;-68
2023/02/21 15:17:54;;;;;;;0.10;0.10;;;;;;;;;;5058055;28;20221;-69
2023/02/21 15:20:20;;;;;;;0.10;0.10;;;;;;;;;;5034548;28;20239;-69
2023/02/21 15:22:54;;;;;;;0.10;0.10;;;;;;;;;;5057849;28;20265;-68
2023/02/21 15:25:21;;;;;;;0.10;0.10;;;;;;;;;;5034679;28;20390;-68
2023/02/21 15:27:58;;;;;;;0.10;0.10;;;;;;;;;;5057151;28;20243;-68
2023/02/21 15:30:25;;;;;;;0.10;0.10;;;;;;;;;;5034969;28;20421;-68
2023/02/21 15:32:56;;;;;;;0.10;0.10;;;;;;;;;;5056558;28;20296;-68
2023/02/21 15:35:25;;;;;;;0.10;0.10;;;;;;;;;;5035163;28;20193;-67
2023/02/21 15:37:51;;;;;;;0.10;0.10;;;;;;;;;;5056197;28;20195;-69
2023/02/21 15:40:20;;;;;;;0.10;0.10;;;;;;;;;;5034565;28;20229;-68
2023/02/21 15:42:47;;;;;;;0.10;0.10;;;;;;;;;;5056728;28;20234;-68
2023/02/21 15:45:18;;;;;;;0.10;0.10;;;;;;;;;;5033603;28;20246;-69
2023/02/21 15:47:45;;;;;;;0.10;0.10;;;;;;;;;;5057297;28;20371;-69
2023/02/21 15:50:14;;;;;;;0.10;0.10;;;;;;;;;;5033347;28;20205;-70
2023/02/21 15:52:41;;;;;;;0.10;0.10;;;;;;;;;;5058029;28;20525;-70
2023/02/21 15:55:15;;;;;;;0.10;0.10;;;;;;;;;;5039264;28;20392;-69
2023/02/21 15:57:41;;;;;;;0.10;0.10;;;;;;;;;;5057699;28;20240;-68
2023/02/21 16:00:18;;;;;;;0.20;0.20;;;;;;;;;;5039165;28;20212;-68
2023/02/21 16:02:45;;;;;;;2.23;2.23;;;;;;;;;;5043908;28;20229;-68
2023/02/21 16:05:24;;;;;;;0.10;0.10;;;;;;;;;;5037264;28;20274;-69
2023/02/21 16:07:52;;;;;;;0.10;0.10;;;;;;;;;;5060190;28;20419;-68
2023/02/21 16:10:20;;;;;;;0.10;0.10;;;;;;;;;;5037883;28;20275;-70
2023/02/21 16:12:53;;;;;;;0.10;0.10;;;;;;;;;;5060423;28;20386;-70
2023/02/21 16:15:22;;;;;;;0.10;0.10;;;;;;;;;;5037788;28;20263;-71
2023/02/21 16:17:52;;;;;;;0.10;0.10;;;;;;;;;;5059851;28;20198;-70
2023/02/21 16:20:20;;;;;;;0.10;0.10;;;;;;;;;;5037816;28;20380;-70
2023/02/21 16:22:49;;;;;;;0.10;0.10;;;;;;;;;;5060424;28;20196;-69
2023/02/21 16:25:18;;;;;;;0.10;0.10;;;;;;;;;;5037036;28;20214;-70
2023/02/21 16:27:46;;;;;;;0.10;0.10;;;;;;;;;;5060446;28;20223;-69
2023/02/21 16:30:13;;;;;;;0.10;0.10;;;;;;;;;;5036950;28;20278;-69
2023/02/21 16:32:42;;;;;;;0.10;0.10;;;;;;;;;;5061031;28;20418;-70
2023/02/21 16:35:11;;;;;;;0.10;0.10;;;;;;;;;;5036089;28;20207;-70
2023/02/21 16:37:38;;;;;;;0.10;0.10;;;;;;;;;;5060881;28;20260;-69
2023/02/21 16:40:11;;;;;;;0.10;0.10;;;;;;;;;;5046304;28;20206;-70
2023/02/21 16:42:37;;;;;;;0.10;0.10;;;;;;;;;;5034882;28;20451;-68
2023/02/21 16:45:04;;;;;;;0.10;0.10;;;;;;;;;;5046198;28;20236;-70
2023/02/21 16:47:30;;;;;;;0.10;0.10;;;;;;;;;;5050988;28;20262;-71
2023/02/21 16:49:57;;;;;;;0.10;0.10;;;;;;;;;;5045890;28;20213;-70
2023/02/21 16:52:23;;;;;;;0.10;0.10;;;;;;;;;;5051129;28;20263;-70
2023/02/21 16:54:49;;;;;;;0.10;0.10;;;;;;;;;;5045705;28;20342;-69
2023/02/21 16:57:17;;;;;;;0.10;0.10;;;;;;;;;;5050935;28;20311;-71
2023/02/21 16:59:44;;;;;;;0.10;0.10;;;;;;;;;;5045685;28;20240;-69
2023/02/21 17:02:13;;;;;;;0.10;0.10;;;;;;;;;;5050971;28;20332;-71
2023/02/21 17:04:39;;;;;;;0.10;0.10;;;;;;;;;;5045949;28;20273;-70
2023/02/21 17:07:08;;;;;;;0.10;0.10;;;;;;;;;;5050416;28;20246;-70
2023/02/21 17:09:38;;;;;;;0.10;0.10;;;;;;;;;;5045475;28;20277;-71
2023/02/21 17:12:04;;;;;;;0.10;0.10;;;;;;;;;;5050260;28;20243;-70
2023/02/21 17:14:32;;;;;;;0.10;0.10;;;;;;;;;;5045921;28;20464;-70
2023/02/21 17:16:59;;;;;;;0.10;0.10;;;;;;;;;;5049355;28;20249;-70
2023/02/21 17:19:25;;;;;;;0.10;0.10;;;;;;;;;;5046349;28;20242;-70
2023/02/21 17:21:52;;;;;;;0.10;0.10;;;;;;;;;;5048354;28;20309;-70
2023/02/21 17:24:18;;;;;;;0.10;0.10;;;;;;;;;;5047155;28;20250;-70
2023/02/21 17:26:45;;;;;;;0.10;0.10;;;;;;;;;;5047257;28;20263;-70
2023/02/21 17:29:11;;;;;;;0.10;0.10;;;;;;;;;;5048461;28;20227;-70
2023/02/21 17:31:39;;;;;;;0.10;0.10;;;;;;;;;;5046521;28;20309;-70
2023/02/21 17:34:05;;;;;;;0.10;0.10;;;;;;;;;;5048819;28;20287;-70
2023/02/21 17:36:32;;;;;;;0.10;0.10;;;;;;;;;;5045524;28;20254;-69